createdAt,value
2019-05-07T00:01:51.648Z,2.80
2019-05-07T00:04:22.479Z,2.70
2019-05-07T00:06:52.795Z,2.57
2019-05-07T00:09:23.492Z,2.33
2019-05-07T00:11:53.510Z,2.70
2019-05-07T00:14:24.953Z,2.50
2019-05-07T00:16:54.560Z,2.87
2019-05-07T00:19:24.023Z,2.43
2019-05-07T00:21:54.003Z,2.10
2019-05-07T00:24:23.520Z,2.20
2019-05-07T00:26:54.324Z,2.40
2019-05-07T00:29:24.139Z,2.40
2019-05-07T00:31:53.743Z,2.30
2019-05-07T00:34:24.881Z,2.20
2019-05-07T00:36:55.954Z,2.53
2019-05-07T00:39:27.013Z,2.83
2019-05-07T00:41:58.412Z,2.20
2019-05-07T00:44:28.843Z,2.40
2019-05-07T00:47:02.185Z,2.27
2019-05-07T00:49:33.084Z,2.40
2019-05-07T00:52:02.935Z,2.20
2019-05-07T00:54:33.516Z,2.50
2019-05-07T00:57:03.203Z,2.10
2019-05-07T00:59:32.764Z,2.40
2019-05-07T01:02:02.384Z,2.13
2019-05-07T01:04:33.124Z,2.30
2019-05-07T01:07:02.921Z,2.10
2019-05-07T01:09:32.523Z,2.67
2019-05-07T01:12:03.119Z,2.07
2019-05-07T01:14:32.770Z,2.40
2019-05-07T01:17:03.239Z,2.40
2019-05-07T01:19:32.976Z,2.37
2019-05-07T01:22:03.159Z,2.20
2019-05-07T01:24:34.124Z,2.37
2019-05-07T01:27:03.733Z,2.20
2019-05-07T01:29:34.327Z,2.37
2019-05-07T01:32:05.911Z,2.00
2019-05-07T01:34:37.154Z,1.90
2019-05-07T01:37:06.729Z,2.30
2019-05-07T01:39:36.371Z,2.03
2019-05-07T01:42:05.889Z,2.03
2019-05-07T01:44:35.282Z,2.10
2019-05-07T01:47:04.899Z,2.00
2019-05-07T01:49:34.477Z,2.33
2019-05-07T01:52:03.999Z,2.33
2019-05-07T01:54:33.658Z,1.90
2019-05-07T01:57:03.306Z,2.10
2019-05-07T01:59:32.721Z,2.13
2019-05-07T02:02:03.942Z,2.23
2019-05-07T02:04:35.125Z,1.90
2019-05-07T02:07:04.587Z,2.27
2019-05-07T02:09:35.725Z,2.20
2019-05-07T02:12:04.999Z,2.50
2019-05-07T02:14:34.436Z,2.23
2019-05-07T02:17:04.055Z,2.00
2019-05-07T02:19:33.565Z,2.10
2019-05-07T02:22:03.070Z,2.20
2019-05-07T02:24:34.048Z,1.87
2019-05-07T02:27:03.700Z,2.00
2019-05-07T02:29:33.185Z,2.03
2019-05-07T02:32:04.640Z,2.93
2019-05-07T02:34:34.492Z,1.97
2019-05-07T02:37:05.948Z,2.30
2019-05-07T02:39:37.247Z,3.17
2019-05-07T02:42:06.784Z,2.13
2019-05-07T02:44:38.232Z,2.00
2019-05-07T02:47:09.312Z,2.13
2019-05-07T02:49:43.600Z,2.10
2019-05-07T02:52:13.663Z,1.97
2019-05-07T02:54:44.950Z,2.50
2019-05-07T02:57:16.976Z,2.17
2019-05-07T02:59:45.702Z,2.00
2019-05-07T03:02:15.229Z,2.07
2019-05-07T03:04:44.886Z,2.20
2019-05-07T03:07:14.424Z,2.10
2019-05-07T03:09:44.223Z,2.13
2019-05-07T03:12:13.846Z,2.03
2019-05-07T03:14:43.922Z,2.40
2019-05-07T03:17:13.775Z,2.50
2019-05-07T03:19:45.952Z,2.73
2019-05-07T03:22:15.439Z,2.40
2019-05-07T03:24:46.738Z,3.07
2019-05-07T03:27:16.399Z,2.23
2019-05-07T03:29:47.750Z,2.87
2019-05-07T03:32:18.838Z,2.57
2019-05-07T03:34:51.152Z,2.57
2019-05-07T03:37:23.418Z,2.50
2019-05-07T03:39:53.874Z,2.27
2019-05-07T03:42:23.770Z,2.67
2019-05-07T03:44:55.120Z,2.73
2019-05-07T03:47:26.271Z,2.87
2019-05-07T03:49:55.757Z,2.93
2019-05-07T03:52:25.481Z,2.83
2019-05-07T03:54:55.078Z,2.70
2019-05-07T03:57:24.683Z,2.63
2019-05-07T03:59:54.095Z,2.60
2019-05-07T04:02:24.162Z,2.70
2019-05-07T04:04:53.929Z,2.77
2019-05-07T04:07:24.655Z,2.60
2019-05-07T04:09:55.529Z,2.77
2019-05-07T04:12:25.092Z,2.37
2019-05-07T04:14:54.537Z,2.70
2019-05-07T04:17:27.042Z,2.27
2019-05-07T04:19:55.240Z,2.60
2019-05-07T04:22:28.843Z,2.37
2019-05-07T04:24:56.100Z,2.70
2019-05-07T04:27:27.114Z,2.80
2019-05-07T04:29:56.518Z,2.30
2019-05-07T04:32:27.782Z,3.33
2019-05-07T04:34:57.088Z,2.70
2019-05-07T04:37:26.599Z,2.73
2019-05-07T04:39:56.165Z,3.40
2019-05-07T04:42:25.702Z,2.60
2019-05-07T04:45:04.159Z,3.00
2019-05-07T04:47:42.593Z,2.60
2019-05-07T04:50:08.574Z,3.30
2019-05-07T04:52:38.777Z,2.83
2019-05-07T04:55:08.812Z,2.90
2019-05-07T05:00:28.982Z,2.87
2019-05-07T05:03:03.133Z,3.07
2019-05-07T05:05:32.948Z,3.03
2019-05-07T05:08:03.983Z,2.93
2019-05-07T05:10:34.244Z,3.17
2019-05-07T05:13:04.094Z,2.87
2019-05-07T05:15:34.930Z,3.20
2019-05-07T05:18:04.457Z,2.90
2019-05-07T05:20:35.605Z,3.00
2019-05-07T05:23:06.811Z,3.27
2019-05-07T05:25:38.031Z,2.93
2019-05-07T05:28:07.467Z,3.20
2019-05-07T05:30:38.710Z,3.00
2019-05-07T05:33:08.321Z,3.80
2019-05-07T05:35:38.147Z,3.80
2019-05-07T05:38:07.765Z,3.40
2019-05-07T05:40:37.348Z,3.27
2019-05-07T05:43:08.688Z,3.27
2019-05-07T05:45:39.839Z,3.47
2019-05-07T05:48:09.344Z,3.50
2019-05-07T05:50:42.294Z,3.33
2019-05-07T05:53:13.583Z,3.50
2019-05-07T05:55:43.272Z,4.03
2019-05-07T05:58:14.427Z,3.17
2019-05-07T06:00:45.518Z,3.00
2019-05-07T06:03:16.674Z,3.40
2019-05-07T06:05:48.034Z,3.73
2019-05-07T06:08:19.168Z,3.50
2019-05-07T06:10:51.895Z,3.40
2019-05-07T06:13:23.332Z,2.97
2019-05-07T06:15:54.676Z,3.70
2019-05-07T06:18:25.771Z,2.83
2019-05-07T06:20:56.846Z,3.33
2019-05-07T06:23:27.878Z,2.83
2019-05-07T06:25:57.447Z,3.20
2019-05-07T06:28:28.139Z,3.13
2019-05-07T06:30:57.656Z,3.10
2019-05-07T06:33:27.236Z,2.73
2019-05-07T06:35:56.750Z,3.37
2019-05-07T06:38:28.064Z,2.80
2019-05-07T06:40:59.299Z,3.20
2019-05-07T06:43:32.532Z,2.60
2019-05-07T06:46:03.908Z,2.33
2019-05-07T06:48:41.826Z,2.47
2019-05-07T06:51:04.600Z,2.47
2019-05-07T06:53:34.244Z,2.37
2019-05-07T06:56:04.880Z,2.43
2019-05-07T06:58:36.241Z,2.77
2019-05-07T07:01:07.547Z,2.17
2019-05-07T07:03:38.931Z,1.83
2019-05-07T07:06:12.122Z,2.80
2019-05-07T07:08:43.257Z,2.80
2019-05-07T07:11:14.516Z,2.60
2019-05-07T07:13:44.143Z,2.40
2019-05-07T07:16:13.874Z,2.60
2019-05-07T07:18:52.091Z,1.90
2019-05-07T07:21:14.899Z,2.40
2019-05-07T07:23:44.403Z,2.60
2019-05-07T07:26:13.995Z,2.57
2019-05-07T07:28:43.614Z,2.40
2019-05-07T07:31:15.065Z,2.23
2019-05-07T07:33:46.284Z,2.43
2019-05-07T07:36:15.909Z,2.40
2019-05-07T07:38:45.502Z,2.40
2019-05-07T07:41:14.983Z,2.17
2019-05-07T07:43:44.370Z,2.40
2019-05-07T07:46:16.433Z,2.67
2019-05-07T07:48:45.163Z,2.00
2019-05-07T07:51:14.835Z,2.20
2019-05-07T07:53:44.375Z,2.07
2019-05-07T07:56:15.627Z,2.10
2019-05-07T07:58:46.759Z,2.67
2019-05-07T08:01:17.889Z,2.30
2019-05-07T08:03:47.449Z,2.67
2019-05-07T08:06:16.912Z,2.50
2019-05-07T08:08:46.519Z,2.07
2019-05-07T08:11:16.254Z,1.50
2019-05-07T08:13:47.829Z,2.10
2019-05-07T08:16:22.259Z,2.10
2019-05-07T08:18:52.213Z,3.17
2019-05-07T08:21:35.035Z,2.60
2019-05-07T08:24:04.624Z,2.67
2019-05-07T08:29:22.534Z,2.50
2019-05-07T08:31:54.730Z,2.30
2019-05-07T08:34:27.691Z,2.53
2019-05-07T08:36:57.147Z,1.53
2019-05-07T08:39:26.652Z,1.90
2019-05-07T08:41:56.154Z,2.17
2019-05-07T08:44:27.207Z,2.43
2019-05-07T08:46:58.224Z,1.87
2019-05-07T08:49:37.051Z,2.23
2019-05-07T08:52:03.033Z,2.30
2019-05-07T08:54:32.657Z,2.40
2019-05-07T08:57:02.799Z,2.57
2019-05-07T08:59:33.550Z,2.07
2019-05-07T09:02:03.245Z,2.13
2019-05-07T09:04:33.043Z,2.20
2019-05-07T09:07:02.944Z,2.17
2019-05-07T09:09:32.802Z,2.60
2019-05-07T09:12:03.087Z,2.40
2019-05-07T09:14:33.516Z,3.50
2019-05-07T09:17:03.134Z,3.20
2019-05-07T09:19:46.793Z,2.90
2019-05-07T09:22:18.138Z,2.63
2019-05-07T09:24:48.853Z,2.23
2019-05-07T09:27:22.147Z,2.80
2019-05-07T09:29:52.882Z,2.30
2019-05-07T09:32:24.044Z,2.50
2019-05-07T09:34:55.102Z,2.37
2019-05-07T09:37:26.243Z,2.60
2019-05-07T09:39:55.661Z,2.60
2019-05-07T09:42:25.110Z,3.00
2019-05-07T09:44:54.616Z,2.40
2019-05-07T09:47:24.221Z,2.77
2019-05-07T09:50:04.639Z,3.20
2019-05-07T09:52:31.929Z,2.87
2019-05-07T09:55:11.057Z,2.83
2019-05-07T09:57:34.754Z,2.23
2019-05-07T10:00:07.204Z,2.60
2019-05-07T10:02:38.561Z,2.90
2019-05-07T10:05:09.818Z,2.90
2019-05-07T10:07:39.329Z,2.40
2019-05-07T10:10:09.434Z,2.47
2019-05-07T10:12:42.086Z,2.70
2019-05-07T10:15:12.465Z,2.40
2019-05-07T10:17:43.700Z,2.47
2019-05-07T10:20:21.569Z,3.17
2019-05-07T10:22:46.505Z,2.60
2019-05-07T10:25:16.402Z,3.10
2019-05-07T10:27:46.097Z,2.27
2019-05-07T10:30:16.445Z,2.60
2019-05-07T10:32:46.141Z,2.87
2019-05-07T10:35:16.147Z,3.07
2019-05-07T10:37:45.669Z,2.73
2019-05-07T10:40:29.754Z,2.10
2019-05-07T10:43:01.251Z,2.03
2019-05-07T10:45:32.695Z,2.63
2019-05-07T10:48:06.521Z,2.50
2019-05-07T10:50:39.305Z,2.70
2019-05-07T10:53:09.026Z,2.17
2019-05-07T10:55:38.579Z,2.20
2019-05-07T10:58:08.357Z,2.47
2019-05-07T11:00:38.035Z,2.13
2019-05-07T11:03:09.206Z,2.13
2019-05-07T11:05:38.865Z,2.60
2019-05-07T11:08:09.561Z,2.40
2019-05-07T11:10:41.875Z,2.23
2019-05-07T11:13:12.832Z,2.10
2019-05-07T11:15:44.216Z,2.57
2019-05-07T11:18:15.514Z,2.40
2019-05-07T11:20:50.279Z,2.33
2019-05-07T11:23:16.798Z,2.47
2019-05-07T11:25:47.256Z,2.70
2019-05-07T11:28:16.820Z,2.40
2019-05-07T11:30:48.130Z,2.53
2019-05-07T11:33:17.777Z,2.10
2019-05-07T11:35:47.397Z,2.47
2019-05-07T11:38:21.593Z,2.23
2019-05-07T11:40:49.252Z,2.03
2019-05-07T11:43:22.130Z,1.83
2019-05-07T11:45:54.304Z,2.00
2019-05-07T11:48:25.756Z,1.60
2019-05-07T11:51:03.309Z,1.90
2019-05-07T11:53:32.553Z,1.77
2019-05-07T11:56:02.555Z,2.03
2019-05-07T11:58:32.688Z,2.40
2019-05-07T12:01:04.708Z,1.90
2019-05-07T12:03:34.487Z,1.73
2019-05-07T12:06:05.189Z,2.00
2019-05-07T12:08:42.528Z,1.57
2019-05-07T12:11:05.942Z,2.10
2019-05-07T12:13:35.648Z,2.20
2019-05-07T12:16:05.175Z,1.70
2019-05-07T12:18:34.702Z,1.80
2019-05-07T12:21:17.497Z,2.00
2019-05-07T12:23:35.321Z,1.90
2019-05-07T12:26:05.033Z,2.03
2019-05-07T12:28:34.562Z,1.90
2019-05-07T12:31:04.185Z,1.60
2019-05-07T12:33:35.292Z,1.50
2019-05-07T12:36:06.518Z,1.40
2019-05-07T12:38:36.060Z,1.60
2019-05-07T12:41:07.383Z,1.67
2019-05-07T12:43:36.903Z,1.67
2019-05-07T12:46:06.380Z,1.83
2019-05-07T12:48:35.975Z,1.70
2019-05-07T12:51:05.578Z,1.97
2019-05-07T12:53:36.792Z,2.07
2019-05-07T12:56:06.346Z,1.60
2019-05-07T12:58:35.937Z,1.87
2019-05-07T13:01:07.258Z,1.70
2019-05-07T13:03:38.696Z,1.60
2019-05-07T13:06:08.250Z,1.90
2019-05-07T13:09:24.986Z,1.80
2019-05-07T13:11:54.522Z,1.70
2019-05-07T13:14:24.076Z,1.50
2019-05-07T13:16:53.531Z,1.70
2019-05-07T13:19:25.901Z,1.57
2019-05-07T13:21:55.353Z,1.70
2019-05-07T13:24:24.863Z,1.47
2019-05-07T13:26:54.901Z,1.87
2019-05-07T13:29:24.447Z,1.50
2019-05-07T13:31:55.514Z,1.73
2019-05-07T13:34:42.797Z,1.60
2019-05-07T13:40:52.615Z,1.30
2019-05-07T13:43:23.568Z,1.50
2019-05-07T13:45:54.842Z,1.40
2019-05-07T13:48:25.827Z,1.67
2019-05-07T13:50:55.836Z,1.43
2019-05-07T13:53:25.585Z,1.73
2019-05-07T13:55:57.932Z,1.50
2019-05-07T13:58:27.500Z,1.50
2019-05-07T14:00:58.690Z,1.77
2019-05-07T14:03:28.273Z,1.70
2019-05-07T14:05:57.964Z,1.47
2019-05-07T14:08:32.056Z,1.80
2019-05-07T14:11:02.775Z,1.77
2019-05-07T14:13:33.797Z,1.70
2019-05-07T14:16:05.539Z,1.77
2019-05-07T14:18:39.197Z,1.53
2019-05-07T14:21:08.908Z,1.30
2019-05-07T14:23:38.253Z,1.40
2019-05-07T14:26:07.605Z,2.13
2019-05-07T14:28:42.309Z,2.00
2019-05-07T14:31:12.314Z,1.60
2019-05-07T14:33:43.763Z,1.60
2019-05-07T14:36:15.070Z,1.70
2019-05-07T14:38:46.619Z,1.70
2019-05-07T14:41:16.153Z,2.00
2019-05-07T14:43:48.908Z,1.73
2019-05-07T14:46:18.473Z,1.85
2019-05-07T14:48:47.874Z,2.37
2019-05-07T14:51:17.308Z,1.70
2019-05-07T14:53:46.701Z,2.30
2019-05-07T14:56:16.593Z,1.70
2019-05-07T14:58:46.047Z,1.63
2019-05-07T15:01:15.457Z,1.70
2019-05-07T15:03:45.078Z,2.00
2019-05-07T15:06:14.630Z,1.80
2019-05-07T15:08:44.061Z,1.50
2019-05-07T15:11:13.550Z,1.47
2019-05-07T15:13:43.032Z,1.87
2019-05-07T15:16:13.221Z,1.67
2019-05-07T15:18:44.469Z,1.70
2019-05-07T15:21:14.159Z,1.80
2019-05-07T15:23:43.661Z,2.53
2019-05-07T15:26:13.171Z,1.77
2019-05-07T15:28:44.413Z,2.20
2019-05-07T15:31:16.670Z,1.93
2019-05-07T15:33:46.092Z,2.40
2019-05-07T15:36:16.508Z,2.02
2019-05-07T15:38:45.931Z,2.50
2019-05-07T15:41:15.745Z,2.00
2019-05-07T15:43:46.220Z,2.63
2019-05-07T15:46:16.152Z,2.40
2019-05-07T15:48:45.792Z,2.60
2019-05-07T15:51:16.984Z,2.00
2019-05-07T15:53:48.369Z,2.20
2019-05-07T15:56:17.816Z,2.47
2019-05-07T15:58:47.410Z,2.10
2019-05-07T16:01:16.884Z,2.23
2019-05-07T16:03:47.242Z,2.47
2019-05-07T16:06:16.701Z,2.13
2019-05-07T16:08:49.170Z,2.30
2019-05-07T16:11:19.893Z,2.10
2019-05-07T16:13:52.448Z,1.90
2019-05-07T16:16:23.580Z,2.40
2019-05-07T16:18:54.775Z,2.23
2019-05-07T16:21:24.339Z,2.53
2019-05-07T16:23:54.832Z,2.17
2019-05-07T16:26:24.336Z,2.40
2019-05-07T16:28:53.774Z,2.60
2019-05-07T16:31:24.620Z,2.43
2019-05-07T16:33:54.329Z,2.30
2019-05-07T16:36:23.860Z,2.70
2019-05-07T16:38:53.345Z,2.00
2019-05-07T16:41:23.068Z,2.40
2019-05-07T16:43:52.550Z,2.50
2019-05-07T16:46:22.534Z,2.33
2019-05-07T16:48:52.083Z,2.27
2019-05-07T16:51:22.352Z,2.53
2019-05-07T16:53:52.529Z,2.30
2019-05-07T16:56:22.693Z,2.47
2019-05-07T16:58:54.065Z,2.47
2019-05-07T17:01:24.728Z,2.30
2019-05-07T17:03:55.995Z,2.57
2019-05-07T17:06:25.460Z,2.40
2019-05-07T17:08:56.718Z,2.60
2019-05-07T17:11:26.233Z,2.90
2019-05-07T17:13:55.820Z,2.30
2019-05-07T17:16:25.371Z,2.80
2019-05-07T17:18:54.806Z,2.90
2019-05-07T17:21:24.560Z,2.57
2019-05-07T17:23:54.017Z,2.90
2019-05-07T17:26:23.713Z,2.90
2019-05-07T17:28:53.262Z,2.33
2019-05-07T17:31:23.016Z,2.90
2019-05-07T17:33:52.650Z,2.57
2019-05-07T17:36:22.419Z,2.80
2019-05-07T17:38:52.218Z,3.00
2019-05-07T17:41:26.515Z,2.90
2019-05-07T17:43:52.943Z,3.20
2019-05-07T17:46:23.188Z,3.20
2019-05-07T17:48:52.762Z,3.40
2019-05-07T17:51:23.881Z,3.20
2019-05-07T17:53:59.350Z,3.80
2019-05-07T17:56:25.314Z,3.97
2019-05-07T17:58:54.788Z,3.87
2019-05-07T18:01:25.984Z,3.30
2019-05-07T18:03:55.589Z,3.67
2019-05-07T18:06:25.107Z,3.80
2019-05-07T18:08:54.590Z,3.90
2019-05-07T18:11:24.400Z,5.00
2019-05-07T18:13:55.971Z,5.43
2019-05-07T18:16:28.300Z,6.27
2019-05-07T18:18:57.741Z,23.73
2019-05-07T18:21:27.212Z,19.50
2019-05-07T18:23:56.621Z,20.00
2019-05-07T18:26:30.498Z,43.90
2019-05-07T18:28:57.261Z,5.50
2019-05-07T18:31:28.322Z,5.30
2019-05-07T18:33:59.635Z,5.87
2019-05-07T18:36:29.203Z,6.93
2019-05-07T18:38:58.586Z,7.77
2019-05-07T18:41:28.088Z,10.13
2019-05-07T18:44:08.881Z,12.70
2019-05-07T18:46:28.769Z,42.50
2019-05-07T18:48:58.223Z,45.40
2019-05-07T18:51:27.693Z,24.43
2019-05-07T18:53:57.088Z,23.00
2019-05-07T18:56:26.487Z,21.97
2019-05-07T18:58:55.846Z,31.40
2019-05-07T19:01:26.963Z,29.97
2019-05-07T19:03:57.102Z,16.73
2019-05-07T19:06:26.497Z,30.43
2019-05-07T19:08:55.945Z,26.53
2019-05-07T19:11:25.407Z,15.67
2019-05-07T19:13:56.135Z,30.37
2019-05-07T19:16:25.794Z,18.77
2019-05-07T19:18:55.225Z,19.13
2019-05-07T19:21:24.580Z,18.40
2019-05-07T19:23:54.016Z,11.47
2019-05-07T19:26:23.420Z,8.50
2019-05-07T19:28:52.862Z,9.30
2019-05-07T19:31:22.258Z,9.20
2019-05-07T19:33:52.789Z,10.77
2019-05-07T19:36:22.406Z,19.87
2019-05-07T19:38:53.068Z,42.77
2019-05-07T19:41:22.531Z,50.23
2019-05-07T19:43:52.765Z,40.53
2019-05-07T19:46:22.938Z,53.23
2019-05-07T19:48:53.611Z,62.63
2019-05-07T19:51:23.070Z,28.63
2019-05-07T19:53:52.669Z,25.33
2019-05-07T19:56:24.040Z,18.83
2019-05-07T19:58:53.661Z,17.73
2019-05-07T20:01:24.789Z,13.87
2019-05-07T20:03:54.281Z,12.57
2019-05-07T20:06:25.139Z,10.77
2019-05-07T20:09:08.114Z,6.50
2019-05-07T20:11:27.446Z,9.83
2019-05-07T20:13:56.836Z,18.50
2019-05-07T20:16:26.407Z,32.20
2019-05-07T20:18:55.833Z,35.07
2019-05-07T20:21:38.857Z,25.80
2019-05-07T20:24:08.402Z,16.73
2019-05-07T20:26:37.784Z,15.53
2019-05-07T20:29:07.244Z,37.93
2019-05-07T20:31:36.665Z,33.23
2019-05-07T20:34:06.445Z,27.83
2019-05-07T20:36:35.863Z,8.97
2019-05-07T20:39:07.295Z,7.80
2019-05-07T20:41:38.507Z,8.00
2019-05-07T20:44:07.925Z,8.23
2019-05-07T20:46:37.565Z,12.57
2019-05-07T20:49:06.979Z,12.37
2019-05-07T20:51:36.482Z,7.60
2019-05-07T20:54:07.665Z,9.77
2019-05-07T20:56:38.726Z,10.17
2019-05-07T20:59:08.251Z,8.57
2019-05-07T21:01:37.714Z,8.70
2019-05-07T21:04:07.171Z,10.33
2019-05-07T21:06:36.765Z,8.73
2019-05-07T21:09:08.343Z,7.77
2019-05-07T21:11:38.248Z,6.40
2019-05-07T21:14:07.778Z,6.37
2019-05-07T21:16:37.261Z,7.67
2019-05-07T21:19:06.772Z,9.63
2019-05-07T21:21:36.154Z,7.53
2019-05-07T21:24:05.837Z,5.60
2019-05-07T21:26:35.555Z,8.27
2019-05-07T21:29:05.735Z,6.77
2019-05-07T21:31:35.133Z,5.63
2019-05-07T21:34:04.736Z,5.80
2019-05-07T21:36:34.205Z,5.50
2019-05-07T21:39:05.617Z,5.03
2019-05-07T21:41:35.181Z,5.63
2019-05-07T21:44:04.646Z,6.20
2019-05-07T21:46:34.036Z,5.43
2019-05-07T21:49:03.404Z,5.60
2019-05-07T21:51:32.864Z,5.30
2019-05-07T21:54:04.052Z,6.20
2019-05-07T21:56:35.290Z,5.83
2019-05-07T21:59:06.471Z,6.67
2019-05-07T22:01:37.658Z,12.00
2019-05-07T22:04:07.179Z,14.23
2019-05-07T22:06:36.740Z,8.77
2019-05-07T22:09:07.596Z,9.07
2019-05-07T22:11:38.023Z,5.40
2019-05-07T22:14:07.531Z,8.07
2019-05-07T22:16:37.113Z,12.33
2019-05-07T22:19:06.760Z,6.93
2019-05-07T22:21:36.206Z,6.73
2019-05-07T22:24:05.883Z,9.43
2019-05-07T22:26:35.494Z,7.00
2019-05-07T22:29:05.075Z,8.20
2019-05-07T22:31:36.356Z,45.47
2019-05-07T22:34:07.551Z,87.30
2019-05-07T22:36:37.422Z,69.20
2019-05-07T22:39:08.921Z,96.50
2019-05-07T22:41:42.315Z,69.33
2019-05-07T22:44:12.114Z,20.20
2019-05-07T22:46:42.858Z,15.97
2019-05-07T22:49:12.464Z,18.27
2019-05-07T22:51:41.856Z,10.90
2019-05-07T22:54:11.892Z,8.43
2019-05-07T22:56:43.127Z,8.20
2019-05-07T22:59:14.715Z,7.37
2019-05-07T23:01:43.993Z,7.13
2019-05-07T23:04:13.576Z,7.23
2019-05-07T23:06:43.712Z,8.60
2019-05-07T23:09:13.497Z,11.30
2019-05-07T23:11:43.017Z,12.63
2019-05-07T23:14:12.531Z,12.87
2019-05-07T23:16:43.087Z,13.27
2019-05-07T23:19:14.080Z,9.50
2019-05-07T23:21:44.865Z,10.23
2019-05-07T23:24:14.287Z,10.80
2019-05-07T23:26:49.881Z,9.90
2019-05-07T23:29:14.978Z,10.10
2019-05-07T23:31:44.458Z,7.77
2019-05-07T23:34:14.022Z,21.53
2019-05-07T23:36:43.577Z,26.93
2019-05-07T23:39:14.649Z,66.67
2019-05-07T23:41:45.800Z,45.53
2019-05-07T23:44:16.775Z,27.97
2019-05-07T23:46:46.455Z,11.30
2019-05-07T23:49:16.234Z,13.27
2019-05-07T23:51:45.825Z,12.00
2019-05-07T23:54:16.283Z,17.83
2019-05-07T23:56:46.811Z,13.57
2019-05-07T23:59:16.188Z,13.40
